PWSweather.com
Personal Weather Stations
Station Observations
KOHAVON11
Long Road Station, Avon, OH 44011

Long Road StationAvon, OH 44011

Lat: 41.437, Lon: -82.0477

Elevation: 686

Station Type: Davis Vantage Pro2

http://www.avon-weather.com

High Low Average
Temperature 52.1°F11.2°C 47.2°F8.4°C 49.2°F9.6°C
Dew Point 45.0°F7.2°C 41.9°F5.5°C 43.3°F6.3°C
Winds 11.0 mph 17.7 kmh Calm Calm 3.0 mph E4.8 kmh E
Wind Gusts 15.0 mph24.1 kmh -- 10.0 mph16.1 kmh
Humidity 86% 70% 80%
Pressure 30.29 in1025.7 mb 30.12 in1020.0 mb -
Precipitation 0.00 in0.0 mm - -
Hour Temp Dew Point Humidity Winds Wind Gusts Pressure Precip Precip Rate Daily Precip Total
12:02 AM 47.2°F8.4°C 43.2°F6.2°C 86% 2.0 mph NNE3.2 kmh NNE 11.0 mph17.7 kmh 30.13 in1020.3 mb 0.00 in0.0 mm 0.00 in/hr0.0 mm/hr 0.00 in0.0 mm
12:07 AM 47.3°F8.5°C 43.3°F6.3°C 86% 7.0 mph NNE11.3 kmh NNE 10.0 mph16.1 kmh 30.13 in1020.3 mb 0.00 in0.0 mm 0.00 in/hr0.0 mm/hr 0.00 in0.0 mm
12:12 AM 47.3°F8.5°C 43.0°F6.1°C 85% 4.0 mph NNE6.4 kmh NNE 17.0 mph27.4 kmh 30.13 in1020.3 mb 0.00 in0.0 mm 0.00 in/hr0.0 mm/hr 0.00 in0.0 mm
12:17 AM 47.4°F8.6°C 43.1°F6.2°C 85% 8.0 mph N12.9 kmh N 17.0 mph27.4 kmh 30.13 in1020.3 mb 0.00 in0.0 mm 0.00 in/hr0.0 mm/hr 0.00 in0.0 mm
12:22 AM 47.4°F8.6°C 43.1°F6.2°C 85% 5.0 mph NNW8.0 kmh NNW 17.0 mph27.4 kmh 30.13 in1020.3 mb 0.00 in0.0 mm 0.00 in/hr0.0 mm/hr 0.00 in0.0 mm
12:27 AM 47.4°F8.6°C 43.1°F6.2°C 85% 5.0 mph NNE8.0 kmh NNE 17.0 mph27.4 kmh 30.13 in1020.3 mb 0.00 in0.0 mm 0.00 in/hr0.0 mm/hr 0.00 in0.0 mm
12:32 AM 47.5°F8.6°C 43.2°F6.2°C 85% 3.0 mph NNW4.8 kmh NNW 8.0 mph12.9 kmh 30.13 in1020.3 mb 0.00 in0.0 mm 0.00 in/hr0.0 mm/hr 0.00 in0.0 mm
12:37 AM 47.5°F8.6°C 43.2°F6.2°C 85% 3.0 mph NNE4.8 kmh NNE 9.0 mph14.5 kmh 30.13 in1020.3 mb 0.00 in0.0 mm 0.00 in/hr0.0 mm/hr 0.00 in0.0 mm
12:42 AM 47.5°F8.6°C 43.2°F6.2°C 85% 6.0 mph NNE9.7 kmh NNE 12.0 mph19.3 kmh 30.13 in1020.3 mb 0.00 in0.0 mm 0.00 in/hr0.0 mm/hr 0.00 in0.0 mm
12:47 AM 47.6°F8.7°C 43.3°F6.3°C 85% 5.0 mph NNW8.0 kmh NNW 12.0 mph19.3 kmh 30.13 in1020.3 mb 0.00 in0.0 mm 0.00 in/hr0.0 mm/hr 0.00 in0.0 mm
12:52 AM 47.6°F8.7°C 43.3°F6.3°C 85% 6.0 mph NNE9.7 kmh NNE 12.0 mph19.3 kmh 30.13 in1020.3 mb 0.00 in0.0 mm 0.00 in/hr0.0 mm/hr 0.00 in0.0 mm
12:57 AM 47.6°F8.7°C 43.3°F6.3°C 85% 12.0 mph NE19.3 kmh NE 12.0 mph19.3 kmh 30.13 in1020.3 mb 0.00 in0.0 mm 0.00 in/hr0.0 mm/hr 0.00 in0.0 mm
01:02 AM 47.7°F8.7°C 43.4°F6.3°C 85% 5.0 mph NW8.0 kmh NW 12.0 mph19.3 kmh 30.13 in1020.3 mb 0.00 in0.0 mm 0.00 in/hr0.0 mm/hr 0.00 in0.0 mm
01:07 AM 47.7°F8.7°C 43.4°F6.3°C 85% 5.0 mph N8.0 kmh N 12.0 mph19.3 kmh 30.13 in1020.3 mb 0.00 in0.0 mm 0.00 in/hr0.0 mm/hr 0.00 in0.0 mm
01:12 AM 47.7°F8.7°C 43.4°F6.3°C 85% 5.0 mph NNE8.0 kmh NNE 10.0 mph16.1 kmh 30.12 in1020.0 mb 0.00 in0.0 mm 0.00 in/hr0.0 mm/hr 0.00 in0.0 mm
01:17 AM 47.8°F8.8°C 43.5°F6.4°C 85% 3.0 mph N4.8 kmh N 10.0 mph16.1 kmh 30.12 in1020.0 mb 0.00 in0.0 mm 0.00 in/hr0.0 mm/hr 0.00 in0.0 mm
01:22 AM 47.9°F8.8°C 43.6°F6.4°C 85% 4.0 mph NE6.4 kmh NE 12.0 mph19.3 kmh 30.13 in1020.3 mb 0.00 in0.0 mm 0.00 in/hr0.0 mm/hr 0.00 in0.0 mm
01:27 AM 47.9°F8.8°C 43.9°F6.6°C 86% 7.0 mph NNE11.3 kmh NNE 12.0 mph19.3 kmh 30.12 in1020.0 mb 0.00 in0.0 mm 0.00 in/hr0.0 mm/hr 0.00 in0.0 mm
01:32 AM 47.9°F8.8°C 43.6°F6.4°C 85% 8.0 mph NE12.9 kmh NE 12.0 mph19.3 kmh 30.12 in1020.0 mb 0.00 in0.0 mm 0.00 in/hr0.0 mm/hr 0.00 in0.0 mm
01:37 AM 48.0°F8.9°C 43.7°F6.5°C 85% 6.0 mph NE9.7 kmh NE 12.0 mph19.3 kmh 30.12 in1020.0 mb 0.00 in0.0 mm 0.00 in/hr0.0 mm/hr 0.00 in0.0 mm
01:42 AM 48.0°F8.9°C 43.7°F6.5°C 85% 10.0 mph NNE16.1 kmh NNE 11.0 mph17.7 kmh 30.12 in1020.0 mb 0.00 in0.0 mm 0.00 in/hr0.0 mm/hr 0.00 in0.0 mm
01:47 AM 48.0°F8.9°C 43.7°F6.5°C 85% 8.0 mph NE12.9 kmh NE 12.0 mph19.3 kmh 30.12 in1020.0 mb 0.00 in0.0 mm 0.00 in/hr0.0 mm/hr 0.00 in0.0 mm
01:52 AM 48.0°F8.9°C 43.7°F6.5°C 85% 4.0 mph NNE6.4 kmh NNE 12.0 mph19.3 kmh 30.12 in1020.0 mb 0.00 in0.0 mm 0.00 in/hr0.0 mm/hr 0.00 in0.0 mm
01:57 AM 48.1°F8.9°C 43.8°F6.6°C 85% 4.0 mph NNE6.4 kmh NNE 13.0 mph20.9 kmh 30.12 in1020.0 mb 0.00 in0.0 mm 0.00 in/hr0.0 mm/hr 0.00 in0.0 mm
02:02 AM 48.1°F8.9°C 43.8°F6.6°C 85% 5.0 mph N8.0 kmh N 13.0 mph20.9 kmh 30.13 in1020.3 mb 0.00 in0.0 mm 0.00 in/hr0.0 mm/hr 0.00 in0.0 mm
02:07 AM 48.1°F8.9°C 43.8°F6.6°C 85% 6.0 mph N9.7 kmh N 13.0 mph20.9 kmh 30.13 in1020.3 mb 0.00 in0.0 mm 0.00 in/hr0.0 mm/hr 0.00 in0.0 mm
02:12 AM 48.1°F8.9°C 43.8°F6.6°C 85% 6.0 mph NE9.7 kmh NE 13.0 mph20.9 kmh 30.13 in1020.3 mb 0.00 in0.0 mm 0.00 in/hr0.0 mm/hr 0.00 in0.0 mm
02:17 AM 48.1°F8.9°C 43.8°F6.6°C 85% 5.0 mph NNE8.0 kmh NNE 12.0 mph19.3 kmh 30.13 in1020.3 mb 0.00 in0.0 mm 0.00 in/hr0.0 mm/hr 0.00 in0.0 mm
02:22 AM 48.1°F8.9°C 43.8°F6.6°C 85% 6.0 mph NNE9.7 kmh NNE 12.0 mph19.3 kmh 30.13 in1020.3 mb 0.00 in0.0 mm 0.00 in/hr0.0 mm/hr 0.00 in0.0 mm
02:27 AM 48.1°F8.9°C 43.8°F6.6°C 85% 6.0 mph N9.7 kmh N 11.0 mph17.7 kmh 30.14 in1020.7 mb 0.00 in0.0 mm 0.00 in/hr0.0 mm/hr 0.00 in0.0 mm
02:32 AM 48.1°F8.9°C 43.8°F6.6°C 85% 4.0 mph ENE6.4 kmh ENE 11.0 mph17.7 kmh 30.14 in1020.7 mb 0.00 in0.0 mm 0.00 in/hr0.0 mm/hr 0.00 in0.0 mm
02:37 AM 48.1°F8.9°C 43.8°F6.6°C 85% 3.0 mph NNE4.8 kmh NNE 12.0 mph19.3 kmh 30.14 in1020.7 mb 0.00 in0.0 mm 0.00 in/hr0.0 mm/hr 0.00 in0.0 mm
02:42 AM 48.1°F8.9°C 43.8°F6.6°C 85% 5.0 mph N8.0 kmh N 12.0 mph19.3 kmh 30.14 in1020.7 mb 0.00 in0.0 mm 0.00 in/hr0.0 mm/hr 0.00 in0.0 mm
02:47 AM 48.0°F8.9°C 43.7°F6.5°C 85% 6.0 mph NE9.7 kmh NE 12.0 mph19.3 kmh 30.14 in1020.7 mb 0.00 in0.0 mm 0.00 in/hr0.0 mm/hr 0.00 in0.0 mm
02:52 AM 48.1°F8.9°C 43.8°F6.6°C 85% 6.0 mph NE9.7 kmh NE 12.0 mph19.3 kmh 30.14 in1020.7 mb 0.00 in0.0 mm 0.00 in/hr0.0 mm/hr 0.00 in0.0 mm
02:57 AM 48.1°F8.9°C 43.8°F6.6°C 85% 5.0 mph NNE8.0 kmh NNE 14.0 mph22.5 kmh 30.14 in1020.7 mb 0.00 in0.0 mm 0.00 in/hr0.0 mm/hr 0.00 in0.0 mm
03:02 AM 48.1°F8.9°C 43.8°F6.6°C 85% 6.0 mph NE9.7 kmh NE 14.0 mph22.5 kmh 30.14 in1020.7 mb 0.00 in0.0 mm 0.00 in/hr0.0 mm/hr 0.00 in0.0 mm
03:07 AM 48.1°F8.9°C 43.8°F6.6°C 85% 6.0 mph NNE9.7 kmh NNE 14.0 mph22.5 kmh 30.14 in1020.7 mb 0.00 in0.0 mm 0.00 in/hr0.0 mm/hr 0.00 in0.0 mm
03:12 AM 48.1°F8.9°C 43.8°F6.6°C 85% 3.0 mph NE4.8 kmh NE 14.0 mph22.5 kmh 30.14 in1020.7 mb 0.00 in0.0 mm 0.00 in/hr0.0 mm/hr 0.00 in0.0 mm
03:17 AM 48.1°F8.9°C 43.8°F6.6°C 85% 3.0 mph NE4.8 kmh NE 13.0 mph20.9 kmh 30.14 in1020.7 mb 0.00 in0.0 mm 0.00 in/hr0.0 mm/hr 0.00 in0.0 mm
03:22 AM 48.2°F9.0°C 43.9°F6.6°C 85% 7.0 mph NE11.3 kmh NE 13.0 mph20.9 kmh 30.14 in1020.7 mb 0.00 in0.0 mm 0.00 in/hr0.0 mm/hr 0.00 in0.0 mm
03:27 AM 48.2°F9.0°C 43.9°F6.6°C 85% 8.0 mph NNE12.9 kmh NNE 14.0 mph22.5 kmh 30.14 in1020.7 mb 0.00 in0.0 mm 0.00 in/hr0.0 mm/hr 0.00 in0.0 mm
03:32 AM 48.2°F9.0°C 43.9°F6.6°C 85% 8.0 mph NE12.9 kmh NE 14.0 mph22.5 kmh 30.14 in1020.7 mb 0.00 in0.0 mm 0.00 in/hr0.0 mm/hr 0.00 in0.0 mm
03:37 AM 48.2°F9.0°C 43.9°F6.6°C 85% 3.0 mph NE4.8 kmh NE 14.0 mph22.5 kmh 30.14 in1020.7 mb 0.00 in0.0 mm 0.00 in/hr0.0 mm/hr 0.00 in0.0 mm
03:42 AM 48.2°F9.0°C 43.9°F6.6°C 85% 10.0 mph NE16.1 kmh NE 14.0 mph22.5 kmh 30.14 in1020.7 mb 0.00 in0.0 mm 0.00 in/hr0.0 mm/hr 0.00 in0.0 mm
03:47 AM 48.2°F9.0°C 43.9°F6.6°C 85% 7.0 mph NNE11.3 kmh NNE 14.0 mph22.5 kmh 30.14 in1020.7 mb 0.00 in0.0 mm 0.00 in/hr0.0 mm/hr 0.00 in0.0 mm
03:52 AM 48.1°F8.9°C 43.8°F6.6°C 85% 5.0 mph NE8.0 kmh NE 14.0 mph22.5 kmh 30.14 in1020.7 mb 0.00 in0.0 mm 0.00 in/hr0.0 mm/hr 0.00 in0.0 mm
03:57 AM 48.2°F9.0°C 43.9°F6.6°C 85% 9.0 mph NE14.5 kmh NE 15.0 mph24.1 kmh 30.14 in1020.7 mb 0.00 in0.0 mm 0.00 in/hr0.0 mm/hr 0.00 in0.0 mm
04:02 AM 48.1°F8.9°C 43.8°F6.6°C 85% 9.0 mph NE14.5 kmh NE 15.0 mph24.1 kmh 30.14 in1020.7 mb 0.00 in0.0 mm 0.00 in/hr0.0 mm/hr 0.00 in0.0 mm
04:07 AM 48.1°F8.9°C 43.8°F6.6°C 85% 4.0 mph ENE6.4 kmh ENE 15.0 mph24.1 kmh 30.14 in1020.7 mb 0.00 in0.0 mm 0.00 in/hr0.0 mm/hr 0.00 in0.0 mm
04:12 AM 48.1°F8.9°C 43.8°F6.6°C 85% 3.0 mph N4.8 kmh N 15.0 mph24.1 kmh 30.14 in1020.7 mb 0.00 in0.0 mm 0.00 in/hr0.0 mm/hr 0.00 in0.0 mm
04:17 AM 48.1°F8.9°C 43.8°F6.6°C 85% 5.0 mph NE8.0 kmh NE 11.0 mph17.7 kmh 30.14 in1020.7 mb 0.00 in0.0 mm 0.00 in/hr0.0 mm/hr 0.00 in0.0 mm
04:22 AM 48.1°F8.9°C 43.8°F6.6°C 85% 11.0 mph NE17.7 kmh NE 11.0 mph17.7 kmh 30.15 in1021.0 mb 0.00 in0.0 mm 0.00 in/hr0.0 mm/hr 0.00 in0.0 mm
04:27 AM 48.1°F8.9°C 43.8°F6.6°C 85% 6.0 mph NE9.7 kmh NE 11.0 mph17.7 kmh 30.15 in1021.0 mb 0.00 in0.0 mm 0.00 in/hr0.0 mm/hr 0.00 in0.0 mm
04:32 AM 48.1°F8.9°C 43.8°F6.6°C 85% 8.0 mph NE12.9 kmh NE 13.0 mph20.9 kmh 30.15 in1021.0 mb 0.00 in0.0 mm 0.00 in/hr0.0 mm/hr 0.00 in0.0 mm
04:37 AM 48.0°F8.9°C 43.7°F6.5°C 85% 1.0 mph N1.6 kmh N 13.0 mph20.9 kmh 30.15 in1021.0 mb 0.00 in0.0 mm 0.00 in/hr0.0 mm/hr 0.00 in0.0 mm
04:42 AM 48.1°F8.9°C 43.8°F6.6°C 85% 2.0 mph E3.2 kmh E 13.0 mph20.9 kmh 30.15 in1021.0 mb 0.00 in0.0 mm 0.00 in/hr0.0 mm/hr 0.00 in0.0 mm
04:47 AM 48.1°F8.9°C 43.8°F6.6°C 85% 6.0 mph NE9.7 kmh NE 13.0 mph20.9 kmh 30.16 in1021.3 mb 0.00 in0.0 mm 0.00 in/hr0.0 mm/hr 0.00 in0.0 mm
04:52 AM 48.0°F8.9°C 43.7°F6.5°C 85% 4.0 mph NE6.4 kmh NE 15.0 mph24.1 kmh 30.16 in1021.3 mb 0.00 in0.0 mm 0.00 in/hr0.0 mm/hr 0.00 in0.0 mm
04:57 AM 48.0°F8.9°C 43.4°F6.3°C 84% 9.0 mph NE14.5 kmh NE 15.0 mph24.1 kmh 30.16 in1021.3 mb 0.00 in0.0 mm 0.00 in/hr0.0 mm/hr 0.00 in0.0 mm
05:02 AM 48.0°F8.9°C 43.4°F6.3°C 84% 5.0 mph NE8.0 kmh NE 15.0 mph24.1 kmh 30.16 in1021.3 mb 0.00 in0.0 mm 0.00 in/hr0.0 mm/hr 0.00 in0.0 mm
05:07 AM 48.0°F8.9°C 43.4°F6.3°C 84% 6.0 mph NE9.7 kmh NE 15.0 mph24.1 kmh 30.16 in1021.3 mb 0.00 in0.0 mm 0.00 in/hr0.0 mm/hr 0.00 in0.0 mm
05:12 AM 48.0°F8.9°C 43.4°F6.3°C 84% 6.0 mph NE9.7 kmh NE 11.0 mph17.7 kmh 30.16 in1021.3 mb 0.00 in0.0 mm 0.00 in/hr0.0 mm/hr 0.00 in0.0 mm
05:17 AM 47.9°F8.8°C 43.3°F6.3°C 84% 4.0 mph NE6.4 kmh NE 11.0 mph17.7 kmh 30.16 in1021.3 mb 0.00 in0.0 mm 0.00 in/hr0.0 mm/hr 0.00 in0.0 mm
05:22 AM 48.0°F8.9°C 43.4°F6.3°C 84% 5.0 mph NNE8.0 kmh NNE 10.0 mph16.1 kmh 30.16 in1021.3 mb 0.00 in0.0 mm 0.00 in/hr0.0 mm/hr 0.00 in0.0 mm
05:27 AM 48.0°F8.9°C 43.4°F6.3°C 84% 4.0 mph NNW6.4 kmh NNW 13.0 mph20.9 kmh 30.17 in1021.7 mb 0.00 in0.0 mm 0.00 in/hr0.0 mm/hr 0.00 in0.0 mm
05:32 AM 48.0°F8.9°C 43.4°F6.3°C 84% 9.0 mph N14.5 kmh N 13.0 mph20.9 kmh 30.17 in1021.7 mb 0.00 in0.0 mm 0.00 in/hr0.0 mm/hr 0.00 in0.0 mm
05:37 AM 48.0°F8.9°C 43.4°F6.3°C 84% 7.0 mph NE11.3 kmh NE 13.0 mph20.9 kmh 30.17 in1021.7 mb 0.00 in0.0 mm 0.00 in/hr0.0 mm/hr 0.00 in0.0 mm
05:42 AM 48.0°F8.9°C 43.4°F6.3°C 84% 11.0 mph N17.7 kmh N 13.0 mph20.9 kmh 30.17 in1021.7 mb 0.00 in0.0 mm 0.00 in/hr0.0 mm/hr 0.00 in0.0 mm
05:47 AM 48.0°F8.9°C 43.4°F6.3°C 84% 8.0 mph NE12.9 kmh NE 14.0 mph22.5 kmh 30.18 in1022.0 mb 0.00 in0.0 mm 0.00 in/hr0.0 mm/hr 0.00 in0.0 mm
05:52 AM 48.0°F8.9°C 43.4°F6.3°C 84% 3.0 mph NNE4.8 kmh NNE 14.0 mph22.5 kmh 30.18 in1022.0 mb 0.00 in0.0 mm 0.00 in/hr0.0 mm/hr 0.00 in0.0 mm
05:57 AM 48.0°F8.9°C 43.4°F6.3°C 84% 7.0 mph NE11.3 kmh NE 14.0 mph22.5 kmh 30.18 in1022.0 mb 0.00 in0.0 mm 0.00 in/hr0.0 mm/hr 0.00 in0.0 mm
06:02 AM 48.0°F8.9°C 43.4°F6.3°C 84% 2.0 mph NE3.2 kmh NE 14.0 mph22.5 kmh 30.18 in1022.0 mb 0.00 in0.0 mm 0.00 in/hr0.0 mm/hr 0.00 in0.0 mm
06:07 AM 48.0°F8.9°C 43.0°F6.1°C 83% 3.0 mph 4.8 kmh 9.0 mph14.5 kmh 30.19 in1022.4 mb 0.00 in0.0 mm 0.00 in/hr0.0 mm/hr 0.00 in0.0 mm
06:12 AM 48.0°F8.9°C 43.0°F6.1°C 83% Calm Calm 10.0 mph16.1 kmh 30.19 in1022.4 mb 0.00 in0.0 mm 0.00 in/hr0.0 mm/hr 0.00 in0.0 mm
06:17 AM 48.0°F8.9°C 43.0°F6.1°C 83% 2.0 mph NNE3.2 kmh NNE 10.0 mph16.1 kmh 30.19 in1022.4 mb 0.00 in0.0 mm 0.00 in/hr0.0 mm/hr 0.00 in0.0 mm
06:22 AM 48.0°F8.9°C 43.0°F6.1°C 83% 2.0 mph NE3.2 kmh NE 12.0 mph19.3 kmh 30.19 in1022.4 mb 0.00 in0.0 mm 0.00 in/hr0.0 mm/hr 0.00 in0.0 mm
06:27 AM 48.0°F8.9°C 43.4°F6.3°C 84% 7.0 mph NE11.3 kmh NE 12.0 mph19.3 kmh 30.20 in1022.7 mb 0.00 in0.0 mm 0.00 in/hr0.0 mm/hr 0.00 in0.0 mm
06:32 AM 48.0°F8.9°C 43.4°F6.3°C 84% 8.0 mph NNW12.9 kmh NNW 12.0 mph19.3 kmh 30.20 in1022.7 mb 0.00 in0.0 mm 0.00 in/hr0.0 mm/hr 0.00 in0.0 mm
06:37 AM 48.0°F8.9°C 43.0°F6.1°C 83% 8.0 mph ENE12.9 kmh ENE 12.0 mph19.3 kmh 30.20 in1022.7 mb 0.00 in0.0 mm 0.00 in/hr0.0 mm/hr 0.00 in0.0 mm
06:42 AM 48.0°F8.9°C 43.0°F6.1°C 83% Calm Calm 13.0 mph20.9 kmh 30.20 in1022.7 mb 0.00 in0.0 mm 0.00 in/hr0.0 mm/hr 0.00 in0.0 mm
06:47 AM 48.0°F8.9°C 43.0°F6.1°C 83% 7.0 mph NE11.3 kmh NE 13.0 mph20.9 kmh 30.20 in1022.7 mb 0.00 in0.0 mm 0.00 in/hr0.0 mm/hr 0.00 in0.0 mm
06:52 AM 48.0°F8.9°C 43.0°F6.1°C 83% 3.0 mph NNE4.8 kmh NNE 13.0 mph20.9 kmh 30.20 in1022.7 mb 0.00 in0.0 mm 0.00 in/hr0.0 mm/hr 0.00 in0.0 mm
06:57 AM 48.0°F8.9°C 43.0°F6.1°C 83% 4.0 mph NE6.4 kmh NE 13.0 mph20.9 kmh 30.21 in1023.0 mb 0.00 in0.0 mm 0.00 in/hr0.0 mm/hr 0.00 in0.0 mm
07:02 AM 48.0°F8.9°C 43.0°F6.1°C 83% 2.0 mph NE3.2 kmh NE 12.0 mph19.3 kmh 30.21 in1023.0 mb 0.00 in0.0 mm 0.00 in/hr0.0 mm/hr 0.00 in0.0 mm
07:07 AM 48.0°F8.9°C 43.0°F6.1°C 83% 4.0 mph NNE6.4 kmh NNE 12.0 mph19.3 kmh 30.21 in1023.0 mb 0.00 in0.0 mm 0.00 in/hr0.0 mm/hr 0.00 in0.0 mm
07:12 AM 48.0°F8.9°C 43.0°F6.1°C 83% 5.0 mph NNE8.0 kmh NNE 12.0 mph19.3 kmh 30.22 in1023.4 mb 0.00 in0.0 mm 0.00 in/hr0.0 mm/hr 0.00 in0.0 mm
07:17 AM 48.0°F8.9°C 43.0°F6.1°C 83% 7.0 mph NNE11.3 kmh NNE 12.0 mph19.3 kmh 30.22 in1023.4 mb 0.00 in0.0 mm 0.00 in/hr0.0 mm/hr 0.00 in0.0 mm
07:22 AM 48.0°F8.9°C 43.0°F6.1°C 83% 4.0 mph NW6.4 kmh NW 12.0 mph19.3 kmh 30.22 in1023.4 mb 0.00 in0.0 mm 0.00 in/hr0.0 mm/hr 0.00 in0.0 mm
07:27 AM 48.0°F8.9°C 43.0°F6.1°C 83% 6.0 mph N9.7 kmh N 12.0 mph19.3 kmh 30.22 in1023.4 mb 0.00 in0.0 mm 0.00 in/hr0.0 mm/hr 0.00 in0.0 mm
07:32 AM 48.0°F8.9°C 43.0°F6.1°C 83% 5.0 mph NE8.0 kmh NE 9.0 mph14.5 kmh 30.22 in1023.4 mb 0.00 in0.0 mm 0.00 in/hr0.0 mm/hr 0.00 in0.0 mm
07:37 AM 48.0°F8.9°C 43.0°F6.1°C 83% 3.0 mph NE4.8 kmh NE 9.0 mph14.5 kmh 30.22 in1023.4 mb 0.00 in0.0 mm 0.00 in/hr0.0 mm/hr 0.00 in0.0 mm
07:42 AM 47.9°F8.8°C 42.6°F5.9°C 82% 4.0 mph ENE6.4 kmh ENE 10.0 mph16.1 kmh 30.22 in1023.4 mb 0.00 in0.0 mm 0.00 in/hr0.0 mm/hr 0.00 in0.0 mm
07:47 AM 47.9°F8.8°C 42.6°F5.9°C 82% 3.0 mph NNE4.8 kmh NNE 10.0 mph16.1 kmh 30.22 in1023.4 mb 0.00 in0.0 mm 0.00 in/hr0.0 mm/hr 0.00 in0.0 mm
07:52 AM 47.9°F8.8°C 42.9°F6.1°C 83% 5.0 mph NNE8.0 kmh NNE 10.0 mph16.1 kmh 30.22 in1023.4 mb 0.00 in0.0 mm 0.00 in/hr0.0 mm/hr 0.00 in0.0 mm
07:57 AM 47.9°F8.8°C 42.9°F6.1°C 83% 2.0 mph N3.2 kmh N 10.0 mph16.1 kmh 30.22 in1023.4 mb 0.00 in0.0 mm 0.00 in/hr0.0 mm/hr 0.00 in0.0 mm
08:02 AM 47.9°F8.8°C 42.9°F6.1°C 83% 3.0 mph ENE4.8 kmh ENE 8.0 mph12.9 kmh 30.23 in1023.7 mb 0.00 in0.0 mm 0.00 in/hr0.0 mm/hr 0.00 in0.0 mm
08:07 AM 47.9°F8.8°C 42.9°F6.1°C 83% 6.0 mph NNE9.7 kmh NNE 11.0 mph17.7 kmh 30.23 in1023.7 mb 0.00 in0.0 mm 0.00 in/hr0.0 mm/hr 0.00 in0.0 mm
08:12 AM 47.8°F8.8°C 42.8°F6.0°C 83% 6.0 mph NNE9.7 kmh NNE 13.0 mph20.9 kmh 30.23 in1023.7 mb 0.00 in0.0 mm 0.00 in/hr0.0 mm/hr 0.00 in0.0 mm
08:17 AM 47.8°F8.8°C 42.8°F6.0°C 83% 5.0 mph NE8.0 kmh NE 13.0 mph20.9 kmh 30.23 in1023.7 mb 0.00 in0.0 mm 0.00 in/hr0.0 mm/hr 0.00 in0.0 mm
08:22 AM 47.8°F8.8°C 42.8°F6.0°C 83% 3.0 mph NE4.8 kmh NE 13.0 mph20.9 kmh 30.23 in1023.7 mb 0.00 in0.0 mm 0.00 in/hr0.0 mm/hr 0.00 in0.0 mm
08:27 AM 47.8°F8.8°C 42.8°F6.0°C 83% 8.0 mph NNE12.9 kmh NNE 14.0 mph22.5 kmh 30.24 in1024.0 mb 0.00 in0.0 mm 0.00 in/hr0.0 mm/hr 0.00 in0.0 mm
08:32 AM 47.8°F8.8°C 42.8°F6.0°C 83% 5.0 mph NE8.0 kmh NE 14.0 mph22.5 kmh 30.24 in1024.0 mb 0.00 in0.0 mm 0.00 in/hr0.0 mm/hr 0.00 in0.0 mm
08:37 AM 47.8°F8.8°C 42.8°F6.0°C 83% 9.0 mph NE14.5 kmh NE 14.0 mph22.5 kmh 30.24 in1024.0 mb 0.00 in0.0 mm 0.00 in/hr0.0 mm/hr 0.00 in0.0 mm
08:42 AM 47.8°F8.8°C 42.8°F6.0°C 83% 6.0 mph NE9.7 kmh NE 14.0 mph22.5 kmh 30.24 in1024.0 mb 0.00 in0.0 mm 0.00 in/hr0.0 mm/hr 0.00 in0.0 mm
08:47 AM 47.8°F8.8°C 43.2°F6.2°C 84% 4.0 mph NE6.4 kmh NE 10.0 mph16.1 kmh 30.24 in1024.0 mb 0.00 in0.0 mm 0.00 in/hr0.0 mm/hr 0.00 in0.0 mm
08:52 AM 47.8°F8.8°C 42.8°F6.0°C 83% 3.0 mph NE4.8 kmh NE 14.0 mph22.5 kmh 30.25 in1024.4 mb 0.00 in0.0 mm 0.00 in/hr0.0 mm/hr 0.00 in0.0 mm
08:57 AM 47.8°F8.8°C 42.8°F6.0°C 83% 4.0 mph NNE6.4 kmh NNE 14.0 mph22.5 kmh 30.25 in1024.4 mb 0.00 in0.0 mm 0.00 in/hr0.0 mm/hr 0.00 in0.0 mm
09:02 AM 47.8°F8.8°C 42.8°F6.0°C 83% 9.0 mph NNE14.5 kmh NNE 14.0 mph22.5 kmh 30.25 in1024.4 mb 0.00 in0.0 mm 0.00 in/hr0.0 mm/hr 0.00 in0.0 mm
09:07 AM 47.8°F8.8°C 42.8°F6.0°C 83% 6.0 mph NW9.7 kmh NW 14.0 mph22.5 kmh 30.25 in1024.4 mb 0.00 in0.0 mm 0.00 in/hr0.0 mm/hr 0.00 in0.0 mm
09:12 AM 47.8°F8.8°C 42.8°F6.0°C 83% 5.0 mph NE8.0 kmh NE 13.0 mph20.9 kmh 30.25 in1024.4 mb 0.00 in0.0 mm 0.00 in/hr0.0 mm/hr 0.00 in0.0 mm
09:17 AM 47.8°F8.8°C 43.2°F6.2°C 84% 4.0 mph NE6.4 kmh NE 13.0 mph20.9 kmh 30.26 in1024.7 mb 0.00 in0.0 mm 0.00 in/hr0.0 mm/hr 0.00 in0.0 mm
09:22 AM 47.7°F8.7°C 42.7°F5.9°C 83% Calm Calm 12.0 mph19.3 kmh 30.26 in1024.7 mb 0.00 in0.0 mm 0.00 in/hr0.0 mm/hr 0.00 in0.0 mm
09:27 AM 47.6°F8.7°C 42.6°F5.9°C 83% 1.0 mph N1.6 kmh N 12.0 mph19.3 kmh 30.26 in1024.7 mb 0.00 in0.0 mm 0.00 in/hr0.0 mm/hr 0.00 in0.0 mm
09:32 AM 47.6°F8.7°C 42.6°F5.9°C 83% 2.0 mph N3.2 kmh N 12.0 mph19.3 kmh 30.26 in1024.7 mb 0.00 in0.0 mm 0.00 in/hr0.0 mm/hr 0.00 in0.0 mm
09:37 AM 47.5°F8.6°C 42.9°F6.1°C 84% 3.0 mph N4.8 kmh N 12.0 mph19.3 kmh 30.26 in1024.7 mb 0.00 in0.0 mm 0.00 in/hr0.0 mm/hr 0.00 in0.0 mm
09:42 AM 47.5°F8.6°C 42.5°F5.8°C 83% 6.0 mph NNE9.7 kmh NNE 10.0 mph16.1 kmh 30.26 in1024.7 mb 0.00 in0.0 mm 0.00 in/hr0.0 mm/hr 0.00 in0.0 mm
09:47 AM 47.4°F8.6°C 42.5°F5.8°C 83% 7.0 mph NNE11.3 kmh NNE 10.0 mph16.1 kmh 30.26 in1024.7 mb 0.00 in0.0 mm 0.00 in/hr0.0 mm/hr 0.00 in0.0 mm
09:52 AM 47.4°F8.6°C 42.8°F6.0°C 84% 4.0 mph N6.4 kmh N 9.0 mph14.5 kmh 30.26 in1024.7 mb 0.00 in0.0 mm 0.00 in/hr0.0 mm/hr 0.00 in0.0 mm
09:57 AM 47.4°F8.6°C 42.8°F6.0°C 84% 5.0 mph NNW8.0 kmh NNW 9.0 mph14.5 kmh 30.27 in1025.1 mb 0.00 in0.0 mm 0.00 in/hr0.0 mm/hr 0.00 in0.0 mm
10:02 AM 47.4°F8.6°C 42.8°F6.0°C 84% Calm Calm 12.0 mph19.3 kmh 30.26 in1024.7 mb 0.00 in0.0 mm 0.00 in/hr0.0 mm/hr 0.00 in0.0 mm
10:07 AM 47.5°F8.6°C 42.9°F6.1°C 84% 3.0 mph NE4.8 kmh NE 12.0 mph19.3 kmh 30.26 in1024.7 mb 0.00 in0.0 mm 0.00 in/hr0.0 mm/hr 0.00 in0.0 mm
10:12 AM 47.5°F8.6°C 42.9°F6.1°C 84% 6.0 mph NE9.7 kmh NE 12.0 mph19.3 kmh 30.26 in1024.7 mb 0.00 in0.0 mm 0.00 in/hr0.0 mm/hr 0.00 in0.0 mm
10:17 AM 47.5°F8.6°C 42.9°F6.1°C 84% 2.0 mph N3.2 kmh N 12.0 mph19.3 kmh 30.26 in1024.7 mb 0.00 in0.0 mm 0.00 in/hr0.0 mm/hr 0.00 in0.0 mm
10:22 AM 47.6°F8.7°C 43.0°F6.1°C 84% 2.0 mph N3.2 kmh N 8.0 mph12.9 kmh 30.26 in1024.7 mb 0.00 in0.0 mm 0.00 in/hr0.0 mm/hr 0.00 in0.0 mm
10:27 AM 47.6°F8.7°C 43.0°F6.1°C 84% 5.0 mph NW8.0 kmh NW 6.0 mph9.7 kmh 30.27 in1025.1 mb 0.00 in0.0 mm 0.00 in/hr0.0 mm/hr 0.00 in0.0 mm
10:32 AM 47.7°F8.7°C 43.1°F6.2°C 84% 3.0 mph N4.8 kmh N 9.0 mph14.5 kmh 30.27 in1025.1 mb 0.00 in0.0 mm 0.00 in/hr0.0 mm/hr 0.00 in0.0 mm
10:37 AM 47.7°F8.7°C 43.1°F6.2°C 84% 5.0 mph NW8.0 kmh NW 9.0 mph14.5 kmh 30.27 in1025.1 mb 0.00 in0.0 mm 0.00 in/hr0.0 mm/hr 0.00 in0.0 mm
10:42 AM 47.8°F8.8°C 43.2°F6.2°C 84% 4.0 mph NNE6.4 kmh NNE 11.0 mph17.7 kmh 30.27 in1025.1 mb 0.00 in0.0 mm 0.00 in/hr0.0 mm/hr 0.00 in0.0 mm
10:47 AM 47.7°F8.7°C 42.7°F5.9°C 83% 4.0 mph NW6.4 kmh NW 11.0 mph17.7 kmh 30.28 in1025.4 mb 0.00 in0.0 mm 0.00 in/hr0.0 mm/hr 0.00 in0.0 mm
10:52 AM 47.7°F8.7°C 42.7°F5.9°C 83% 1.0 mph NNW1.6 kmh NNW 12.0 mph19.3 kmh 30.28 in1025.4 mb 0.00 in0.0 mm 0.00 in/hr0.0 mm/hr 0.00 in0.0 mm
10:57 AM 47.6°F8.7°C 42.6°F5.9°C 83% Calm Calm 12.0 mph19.3 kmh 30.28 in1025.4 mb 0.00 in0.0 mm 0.00 in/hr0.0 mm/hr 0.00 in0.0 mm
11:02 AM 47.6°F8.7°C 42.6°F5.9°C 83% Calm Calm 12.0 mph19.3 kmh 30.27 in1025.1 mb 0.00 in0.0 mm 0.00 in/hr0.0 mm/hr 0.00 in0.0 mm
11:07 AM 47.6°F8.7°C 42.6°F5.9°C 83% 10.0 mph N16.1 kmh N 12.0 mph19.3 kmh 30.28 in1025.4 mb 0.00 in0.0 mm 0.00 in/hr0.0 mm/hr 0.00 in0.0 mm
11:12 AM 47.5°F8.6°C 42.5°F5.8°C 83% Calm Calm 10.0 mph16.1 kmh 30.28 in1025.4 mb 0.00 in0.0 mm 0.00 in/hr0.0 mm/hr 0.00 in0.0 mm
11:17 AM 47.5°F8.6°C 42.5°F5.8°C 83% 4.0 mph NW6.4 kmh NW 9.0 mph14.5 kmh 30.28 in1025.4 mb 0.00 in0.0 mm 0.00 in/hr0.0 mm/hr 0.00 in0.0 mm
11:22 AM 47.4°F8.6°C 42.5°F5.8°C 83% 1.0 mph 1.6 kmh 11.0 mph17.7 kmh 30.28 in1025.4 mb 0.00 in0.0 mm 0.00 in/hr0.0 mm/hr 0.00 in0.0 mm
11:27 AM 47.5°F8.6°C 42.5°F5.8°C 83% Calm Calm 11.0 mph17.7 kmh 30.28 in1025.4 mb 0.00 in0.0 mm 0.00 in/hr0.0 mm/hr 0.00 in0.0 mm
11:32 AM 47.5°F8.6°C 42.5°F5.8°C 83% 8.0 mph NE12.9 kmh NE 11.0 mph17.7 kmh 30.28 in1025.4 mb 0.00 in0.0 mm 0.00 in/hr0.0 mm/hr 0.00 in0.0 mm
11:37 AM 47.4°F8.6°C 42.5°F5.8°C 83% 11.0 mph N17.7 kmh N 11.0 mph17.7 kmh 30.28 in1025.4 mb 0.00 in0.0 mm 0.00 in/hr0.0 mm/hr 0.00 in0.0 mm
11:42 AM 47.4°F8.6°C 42.5°F5.8°C 83% 3.0 mph NE4.8 kmh NE 11.0 mph17.7 kmh 30.28 in1025.4 mb 0.00 in0.0 mm 0.00 in/hr0.0 mm/hr 0.00 in0.0 mm
11:47 AM 47.3°F8.5°C 42.4°F5.8°C 83% 4.0 mph NW6.4 kmh NW 11.0 mph17.7 kmh 30.28 in1025.4 mb 0.00 in0.0 mm 0.00 in/hr0.0 mm/hr 0.00 in0.0 mm
11:52 AM 47.3°F8.5°C 42.4°F5.8°C 83% 2.0 mph NNE3.2 kmh NNE 11.0 mph17.7 kmh 30.28 in1025.4 mb 0.00 in0.0 mm 0.00 in/hr0.0 mm/hr 0.00 in0.0 mm
11:57 AM 47.3°F8.5°C 42.4°F5.8°C 83% 3.0 mph NNE4.8 kmh NNE 11.0 mph17.7 kmh 30.29 in1025.7 mb 0.00 in0.0 mm 0.00 in/hr0.0 mm/hr 0.00 in0.0 mm
12:02 PM 47.3°F8.5°C 42.4°F5.8°C 83% 7.0 mph NNW11.3 kmh NNW 12.0 mph19.3 kmh 30.29 in1025.7 mb 0.00 in0.0 mm 0.00 in/hr0.0 mm/hr 0.00 in0.0 mm
12:07 PM 47.3°F8.5°C 42.4°F5.8°C 83% 1.0 mph NNE1.6 kmh NNE 12.0 mph19.3 kmh 30.29 in1025.7 mb 0.00 in0.0 mm 0.00 in/hr0.0 mm/hr 0.00 in0.0 mm
12:12 PM 47.3°F8.5°C 42.4°F5.8°C 83% 7.0 mph N11.3 kmh N 12.0 mph19.3 kmh 30.29 in1025.7 mb 0.00 in0.0 mm 0.00 in/hr0.0 mm/hr 0.00 in0.0 mm
12:17 PM 47.3°F8.5°C 42.4°F5.8°C 83% 2.0 mph NW3.2 kmh NW 12.0 mph19.3 kmh 30.29 in1025.7 mb 0.00 in0.0 mm 0.00 in/hr0.0 mm/hr 0.00 in0.0 mm
12:22 PM 47.2°F8.4°C 41.9°F5.5°C 82% 7.0 mph N11.3 kmh N 11.0 mph17.7 kmh 30.29 in1025.7 mb 0.00 in0.0 mm 0.00 in/hr0.0 mm/hr 0.00 in0.0 mm
12:27 PM 47.2°F8.4°C 41.9°F5.5°C 82% 1.0 mph N1.6 kmh N 11.0 mph17.7 kmh 30.29 in1025.7 mb 0.00 in0.0 mm 0.00 in/hr0.0 mm/hr 0.00 in0.0 mm
12:32 PM 47.5°F8.6°C 42.5°F5.8°C 83% 2.0 mph NE3.2 kmh NE 11.0 mph17.7 kmh 30.29 in1025.7 mb 0.00 in0.0 mm 0.00 in/hr0.0 mm/hr 0.00 in0.0 mm
12:37 PM 47.6°F8.7°C 42.6°F5.9°C 83% 10.0 mph N16.1 kmh N 13.0 mph20.9 kmh 30.29 in1025.7 mb 0.00 in0.0 mm 0.00 in/hr0.0 mm/hr 0.00 in0.0 mm
12:42 PM 47.6°F8.7°C 42.3°F5.7°C 82% Calm Calm 13.0 mph20.9 kmh 30.28 in1025.4 mb 0.00 in0.0 mm 0.00 in/hr0.0 mm/hr 0.00 in0.0 mm
12:47 PM 47.8°F8.8°C 42.5°F5.8°C 82% 5.0 mph NNW8.0 kmh NNW 13.0 mph20.9 kmh 30.28 in1025.4 mb 0.00 in0.0 mm 0.00 in/hr0.0 mm/hr 0.00 in0.0 mm
12:52 PM 47.9°F8.8°C 42.6°F5.9°C 82% Calm Calm 13.0 mph20.9 kmh 30.28 in1025.4 mb 0.00 in0.0 mm 0.00 in/hr0.0 mm/hr 0.00 in0.0 mm
12:57 PM 48.0°F8.9°C 42.7°F5.9°C 82% Calm Calm 11.0 mph17.7 kmh 30.28 in1025.4 mb 0.00 in0.0 mm 0.00 in/hr0.0 mm/hr 0.00 in0.0 mm
01:02 PM 48.2°F9.0°C 42.9°F6.1°C 82% Calm Calm 11.0 mph17.7 kmh 30.28 in1025.4 mb 0.00 in0.0 mm 0.00 in/hr0.0 mm/hr 0.00 in0.0 mm
01:07 PM 48.4°F9.1°C 42.8°F6.0°C 81% 2.0 mph NNE3.2 kmh NNE 11.0 mph17.7 kmh 30.28 in1025.4 mb 0.00 in0.0 mm 0.00 in/hr0.0 mm/hr 0.00 in0.0 mm
01:12 PM 48.6°F9.2°C 43.0°F6.1°C 81% Calm Calm 11.0 mph17.7 kmh 30.27 in1025.1 mb 0.00 in0.0 mm 0.00 in/hr0.0 mm/hr 0.00 in0.0 mm
01:17 PM 48.9°F9.4°C 42.9°F6.1°C 80% 3.0 mph NNW4.8 kmh NNW 11.0 mph17.7 kmh 30.27 in1025.1 mb 0.00 in0.0 mm 0.00 in/hr0.0 mm/hr 0.00 in0.0 mm
01:22 PM 49.1°F9.5°C 43.1°F6.2°C 80% Calm Calm 11.0 mph17.7 kmh 30.27 in1025.1 mb 0.00 in0.0 mm 0.00 in/hr0.0 mm/hr 0.00 in0.0 mm
01:27 PM 49.3°F9.6°C 43.3°F6.3°C 80% 2.0 mph N3.2 kmh N 11.0 mph17.7 kmh 30.27 in1025.1 mb 0.00 in0.0 mm 0.00 in/hr0.0 mm/hr 0.00 in0.0 mm
01:32 PM 49.4°F9.7°C 43.1°F6.2°C 79% 4.0 mph NNE6.4 kmh NNE 11.0 mph17.7 kmh 30.27 in1025.1 mb 0.00 in0.0 mm 0.00 in/hr0.0 mm/hr 0.00 in0.0 mm
01:37 PM 49.7°F9.8°C 43.7°F6.5°C 80% Calm Calm -- 30.27 in1025.1 mb 0.00 in0.0 mm 0.00 in/hr0.0 mm/hr 0.00 in0.0 mm
01:42 PM 49.8°F9.9°C 43.1°F6.2°C 78% Calm Calm 2.0 mph3.2 kmh 30.27 in1025.1 mb 0.00 in0.0 mm 0.00 in/hr0.0 mm/hr 0.00 in0.0 mm
01:47 PM 49.9°F9.9°C 43.6°F6.4°C 79% 7.0 mph N11.3 kmh N 7.0 mph11.3 kmh 30.27 in1025.1 mb 0.00 in0.0 mm 0.00 in/hr0.0 mm/hr 0.00 in0.0 mm
01:52 PM 49.8°F9.9°C 43.1°F6.2°C 78% 4.0 mph N6.4 kmh N 9.0 mph14.5 kmh 30.27 in1025.1 mb 0.00 in0.0 mm 0.00 in/hr0.0 mm/hr 0.00 in0.0 mm
01:57 PM 49.8°F9.9°C 43.1°F6.2°C 78% 6.0 mph 9.7 kmh 13.0 mph20.9 kmh 30.26 in1024.7 mb 0.00 in0.0 mm 0.00 in/hr0.0 mm/hr 0.00 in0.0 mm
02:02 PM 49.7°F9.8°C 43.0°F6.1°C 78% 2.0 mph N3.2 kmh N 13.0 mph20.9 kmh 30.27 in1025.1 mb 0.00 in0.0 mm 0.00 in/hr0.0 mm/hr 0.00 in0.0 mm
02:07 PM 49.8°F9.9°C 43.5°F6.4°C 79% 9.0 mph N14.5 kmh N 13.0 mph20.9 kmh 30.27 in1025.1 mb 0.00 in0.0 mm 0.00 in/hr0.0 mm/hr 0.00 in0.0 mm
02:12 PM 49.8°F9.9°C 43.5°F6.4°C 79% 4.0 mph NNE6.4 kmh NNE 13.0 mph20.9 kmh 30.26 in1024.7 mb 0.00 in0.0 mm 0.00 in/hr0.0 mm/hr 0.00 in0.0 mm
02:17 PM 49.8°F9.9°C 42.8°F6.0°C 77% 7.0 mph N11.3 kmh N 12.0 mph19.3 kmh 30.27 in1025.1 mb 0.00 in0.0 mm 0.00 in/hr0.0 mm/hr 0.00 in0.0 mm
02:22 PM 49.8°F9.9°C 42.8°F6.0°C 77% 2.0 mph N3.2 kmh N 13.0 mph20.9 kmh 30.27 in1025.1 mb 0.00 in0.0 mm 0.00 in/hr0.0 mm/hr 0.00 in0.0 mm
02:27 PM 50.0°F10.0°C 43.0°F6.1°C 77% 1.0 mph NE1.6 kmh NE 13.0 mph20.9 kmh 30.26 in1024.7 mb 0.00 in0.0 mm 0.00 in/hr0.0 mm/hr 0.00 in0.0 mm
02:32 PM 50.0°F10.0°C 43.0°F6.1°C 77% 3.0 mph NNE4.8 kmh NNE 13.0 mph20.9 kmh 30.26 in1024.7 mb 0.00 in0.0 mm 0.00 in/hr0.0 mm/hr 0.00 in0.0 mm
02:37 PM 50.0°F10.0°C 43.0°F6.1°C 77% Calm Calm 13.0 mph20.9 kmh 30.26 in1024.7 mb 0.00 in0.0 mm 0.00 in/hr0.0 mm/hr 0.00 in0.0 mm
02:42 PM 50.1°F10.1°C 42.7°F5.9°C 76% Calm Calm 11.0 mph17.7 kmh 30.26 in1024.7 mb 0.00 in0.0 mm 0.00 in/hr0.0 mm/hr 0.00 in0.0 mm
02:47 PM 50.2°F10.1°C 43.2°F6.2°C 77% 6.0 mph NE9.7 kmh NE 9.0 mph14.5 kmh 30.26 in1024.7 mb 0.00 in0.0 mm 0.00 in/hr0.0 mm/hr 0.00 in0.0 mm
02:52 PM 50.3°F10.2°C 42.9°F6.1°C 76% 6.0 mph N9.7 kmh N 9.0 mph14.5 kmh 30.26 in1024.7 mb 0.00 in0.0 mm 0.00 in/hr0.0 mm/hr 0.00 in0.0 mm
02:57 PM 50.3°F10.2°C 42.2°F5.7°C 74% 5.0 mph 8.0 kmh 9.0 mph14.5 kmh 30.26 in1024.7 mb 0.00 in0.0 mm 0.00 in/hr0.0 mm/hr 0.00 in0.0 mm
03:02 PM 50.2°F10.1°C 42.5°F5.8°C 75% Calm Calm 9.0 mph14.5 kmh 30.26 in1024.7 mb 0.00 in0.0 mm 0.00 in/hr0.0 mm/hr 0.00 in0.0 mm
03:07 PM 50.3°F10.2°C 42.2°F5.7°C 74% 6.0 mph 9.7 kmh 9.0 mph14.5 kmh 30.26 in1024.7 mb 0.00 in0.0 mm 0.00 in/hr0.0 mm/hr 0.00 in0.0 mm
03:12 PM 50.3°F10.2°C 42.6°F5.9°C 75% 3.0 mph N4.8 kmh N 10.0 mph16.1 kmh 30.26 in1024.7 mb 0.00 in0.0 mm 0.00 in/hr0.0 mm/hr 0.00 in0.0 mm
03:17 PM 50.5°F10.3°C 42.4°F5.8°C 74% 5.0 mph N8.0 kmh N 10.0 mph16.1 kmh 30.26 in1024.7 mb 0.00 in0.0 mm 0.00 in/hr0.0 mm/hr 0.00 in0.0 mm
03:22 PM 50.8°F10.4°C 42.3°F5.7°C 73% 3.0 mph NE4.8 kmh NE 10.0 mph16.1 kmh 30.26 in1024.7 mb 0.00 in0.0 mm 0.00 in/hr0.0 mm/hr 0.00 in0.0 mm
03:27 PM 51.0°F10.6°C 42.1°F5.6°C 72% 4.0 mph NNE6.4 kmh NNE 12.0 mph19.3 kmh 30.26 in1024.7 mb 0.00 in0.0 mm 0.00 in/hr0.0 mm/hr 0.00 in0.0 mm
03:32 PM 51.2°F10.7°C 43.1°F6.2°C 74% 5.0 mph N8.0 kmh N 12.0 mph19.3 kmh 30.26 in1024.7 mb 0.00 in0.0 mm 0.00 in/hr0.0 mm/hr 0.00 in0.0 mm
03:37 PM 51.3°F10.7°C 43.5°F6.4°C 75% 1.0 mph N1.6 kmh N 12.0 mph19.3 kmh 30.26 in1024.7 mb 0.00 in0.0 mm 0.00 in/hr0.0 mm/hr 0.00 in0.0 mm
03:42 PM 51.3°F10.7°C 43.2°F6.2°C 74% 5.0 mph N8.0 kmh N 12.0 mph19.3 kmh 30.26 in1024.7 mb 0.00 in0.0 mm 0.00 in/hr0.0 mm/hr 0.00 in0.0 mm
03:47 PM 51.3°F10.7°C 42.8°F6.0°C 73% 2.0 mph N3.2 kmh N 8.0 mph12.9 kmh 30.26 in1024.7 mb 0.00 in0.0 mm 0.00 in/hr0.0 mm/hr 0.00 in0.0 mm
03:52 PM 51.5°F10.8°C 42.6°F5.9°C 72% 5.0 mph NE8.0 kmh NE 10.0 mph16.1 kmh 30.26 in1024.7 mb 0.00 in0.0 mm 0.00 in/hr0.0 mm/hr 0.00 in0.0 mm
03:57 PM 51.7°F10.9°C 42.8°F6.0°C 72% 4.0 mph NE6.4 kmh NE 10.0 mph16.1 kmh 30.25 in1024.4 mb 0.00 in0.0 mm 0.00 in/hr0.0 mm/hr 0.00 in0.0 mm
04:02 PM 51.9°F11.1°C 42.6°F5.9°C 71% 6.0 mph NE9.7 kmh NE 10.0 mph16.1 kmh 30.25 in1024.4 mb 0.00 in0.0 mm 0.00 in/hr0.0 mm/hr 0.00 in0.0 mm
04:07 PM 51.9°F11.1°C 42.6°F5.9°C 71% 6.0 mph NE9.7 kmh NE 11.0 mph17.7 kmh 30.25 in1024.4 mb 0.00 in0.0 mm 0.00 in/hr0.0 mm/hr 0.00 in0.0 mm
04:12 PM 51.8°F11.0°C 42.2°F5.7°C 70% 5.0 mph NE8.0 kmh NE 11.0 mph17.7 kmh 30.25 in1024.4 mb 0.00 in0.0 mm 0.00 in/hr0.0 mm/hr 0.00 in0.0 mm
04:17 PM 51.7°F10.9°C 42.1°F5.6°C 70% 1.0 mph NE1.6 kmh NE 11.0 mph17.7 kmh 30.25 in1024.4 mb 0.00 in0.0 mm 0.00 in/hr0.0 mm/hr 0.00 in0.0 mm
04:22 PM 51.6°F10.9°C 42.3°F5.7°C 71% 1.0 mph NNE1.6 kmh NNE 11.0 mph17.7 kmh 30.25 in1024.4 mb 0.00 in0.0 mm 0.00 in/hr0.0 mm/hr 0.00 in0.0 mm
04:27 PM 51.6°F10.9°C 42.7°F5.9°C 72% Calm Calm 10.0 mph16.1 kmh 30.25 in1024.4 mb 0.00 in0.0 mm 0.00 in/hr0.0 mm/hr 0.00 in0.0 mm
04:32 PM 51.7°F10.9°C 43.2°F6.2°C 73% 1.0 mph ENE1.6 kmh ENE 1.0 mph1.6 kmh 30.25 in1024.4 mb 0.00 in0.0 mm 0.00 in/hr0.0 mm/hr 0.00 in0.0 mm
04:37 PM 51.8°F11.0°C 42.9°F6.1°C 72% 2.0 mph NNE3.2 kmh NNE 8.0 mph12.9 kmh 30.25 in1024.4 mb 0.00 in0.0 mm 0.00 in/hr0.0 mm/hr 0.00 in0.0 mm
04:42 PM 52.0°F11.1°C 43.1°F6.2°C 72% Calm Calm 1.0 mph1.6 kmh 30.25 in1024.4 mb 0.00 in0.0 mm 0.00 in/hr0.0 mm/hr 0.00 in0.0 mm
04:47 PM 52.1°F11.2°C 43.2°F6.2°C 72% 2.0 mph ENE3.2 kmh ENE 9.0 mph14.5 kmh 30.25 in1024.4 mb 0.00 in0.0 mm 0.00 in/hr0.0 mm/hr 0.00 in0.0 mm
04:52 PM 52.1°F11.2°C 42.8°F6.0°C 71% 5.0 mph 8.0 kmh 9.0 mph14.5 kmh 30.25 in1024.4 mb 0.00 in0.0 mm 0.00 in/hr0.0 mm/hr 0.00 in0.0 mm
04:57 PM 52.0°F11.1°C 42.7°F5.9°C 71% Calm Calm 9.0 mph14.5 kmh 30.25 in1024.4 mb 0.00 in0.0 mm 0.00 in/hr0.0 mm/hr 0.00 in0.0 mm
05:02 PM 52.0°F11.1°C 42.7°F5.9°C 71% Calm Calm 8.0 mph12.9 kmh 30.25 in1024.4 mb 0.00 in0.0 mm 0.00 in/hr0.0 mm/hr 0.00 in0.0 mm
05:07 PM 52.0°F11.1°C 42.7°F5.9°C 71% 2.0 mph NE3.2 kmh NE 9.0 mph14.5 kmh 30.25 in1024.4 mb 0.00 in0.0 mm 0.00 in/hr0.0 mm/hr 0.00 in0.0 mm
05:12 PM 51.9°F11.1°C 42.6°F5.9°C 71% 5.0 mph NNW8.0 kmh NNW 9.0 mph14.5 kmh 30.25 in1024.4 mb 0.00 in0.0 mm 0.00 in/hr0.0 mm/hr 0.00 in0.0 mm
05:17 PM 51.9°F11.1°C 42.2°F5.7°C 70% 6.0 mph N9.7 kmh N 9.0 mph14.5 kmh 30.25 in1024.4 mb 0.00 in0.0 mm 0.00 in/hr0.0 mm/hr 0.00 in0.0 mm
05:22 PM 51.8°F11.0°C 42.2°F5.7°C 70% 5.0 mph NE8.0 kmh NE 9.0 mph14.5 kmh 30.25 in1024.4 mb 0.00 in0.0 mm 0.00 in/hr0.0 mm/hr 0.00 in0.0 mm
05:27 PM 51.8°F11.0°C 42.2°F5.7°C 70% Calm Calm 8.0 mph12.9 kmh 30.25 in1024.4 mb 0.00 in0.0 mm 0.00 in/hr0.0 mm/hr 0.00 in0.0 mm
05:32 PM 51.8°F11.0°C 42.5°F5.8°C 71% Calm Calm 8.0 mph12.9 kmh 30.25 in1024.4 mb 0.00 in0.0 mm 0.00 in/hr0.0 mm/hr 0.00 in0.0 mm
05:37 PM 51.8°F11.0°C 42.9°F6.1°C 72% 6.0 mph NE9.7 kmh NE 7.0 mph11.3 kmh 30.25 in1024.4 mb 0.00 in0.0 mm 0.00 in/hr0.0 mm/hr 0.00 in0.0 mm
05:42 PM 51.8°F11.0°C 42.5°F5.8°C 71% 3.0 mph NE4.8 kmh NE 7.0 mph11.3 kmh 30.25 in1024.4 mb 0.00 in0.0 mm 0.00 in/hr0.0 mm/hr 0.00 in0.0 mm
05:47 PM 51.8°F11.0°C 42.5°F5.8°C 71% Calm Calm 10.0 mph16.1 kmh 30.25 in1024.4 mb 0.00 in0.0 mm 0.00 in/hr0.0 mm/hr 0.00 in0.0 mm
05:52 PM 51.8°F11.0°C 42.5°F5.8°C 71% Calm Calm -- 30.25 in1024.4 mb 0.00 in0.0 mm 0.00 in/hr0.0 mm/hr 0.00 in0.0 mm
05:57 PM 51.8°F11.0°C 42.9°F6.1°C 72% Calm Calm 1.0 mph1.6 kmh 30.25 in1024.4 mb 0.00 in0.0 mm 0.00 in/hr0.0 mm/hr 0.00 in0.0 mm
06:02 PM 51.7°F10.9°C 42.8°F6.0°C 72% Calm Calm 1.0 mph1.6 kmh 30.25 in1024.4 mb 0.00 in0.0 mm 0.00 in/hr0.0 mm/hr 0.00 in0.0 mm
06:07 PM 51.7°F10.9°C 42.8°F6.0°C 72% Calm Calm -- 30.25 in1024.4 mb 0.00 in0.0 mm 0.00 in/hr0.0 mm/hr 0.00 in0.0 mm
06:12 PM 51.7°F10.9°C 42.8°F6.0°C 72% Calm Calm -- 30.25 in1024.4 mb 0.00 in0.0 mm 0.00 in/hr0.0 mm/hr 0.00 in0.0 mm
06:17 PM 51.7°F10.9°C 42.8°F6.0°C 72% Calm Calm -- 30.25 in1024.4 mb 0.00 in0.0 mm 0.00 in/hr0.0 mm/hr 0.00 in0.0 mm
06:22 PM 51.6°F10.9°C 42.7°F5.9°C 72% Calm Calm -- 30.25 in1024.4 mb 0.00 in0.0 mm 0.00 in/hr0.0 mm/hr 0.00 in0.0 mm
06:27 PM 51.6°F10.9°C 43.1°F6.2°C 73% Calm Calm -- 30.25 in1024.4 mb 0.00 in0.0 mm 0.00 in/hr0.0 mm/hr 0.00 in0.0 mm
06:32 PM 51.5°F10.8°C 43.0°F6.1°C 73% Calm Calm -- 30.25 in1024.4 mb 0.00 in0.0 mm 0.00 in/hr0.0 mm/hr 0.00 in0.0 mm
06:37 PM 51.4°F10.8°C 42.9°F6.1°C 73% Calm Calm -- 30.25 in1024.4 mb 0.00 in0.0 mm 0.00 in/hr0.0 mm/hr 0.00 in0.0 mm
06:42 PM 51.3°F10.7°C 42.8°F6.0°C 73% Calm Calm -- 30.25 in1024.4 mb 0.00 in0.0 mm 0.00 in/hr0.0 mm/hr 0.00 in0.0 mm
06:47 PM 51.2°F10.7°C 42.7°F5.9°C 73% Calm Calm -- 30.25 in1024.4 mb 0.00 in0.0 mm 0.00 in/hr0.0 mm/hr 0.00 in0.0 mm
06:52 PM 51.1°F10.6°C 43.0°F6.1°C 74% Calm Calm -- 30.24 in1024.0 mb 0.00 in0.0 mm 0.00 in/hr0.0 mm/hr 0.00 in0.0 mm
06:57 PM 51.1°F10.6°C 43.0°F6.1°C 74% Calm Calm -- 30.24 in1024.0 mb 0.00 in0.0 mm 0.00 in/hr0.0 mm/hr 0.00 in0.0 mm
07:02 PM 51.0°F10.6°C 42.9°F6.1°C 74% Calm Calm -- 30.24 in1024.0 mb 0.00 in0.0 mm 0.00 in/hr0.0 mm/hr 0.00 in0.0 mm
07:07 PM 50.9°F10.5°C 43.1°F6.2°C 75% Calm Calm -- 30.24 in1024.0 mb 0.00 in0.0 mm 0.00 in/hr0.0 mm/hr 0.00 in0.0 mm
07:12 PM 50.8°F10.4°C 43.0°F6.1°C 75% Calm Calm -- 30.24 in1024.0 mb 0.00 in0.0 mm 0.00 in/hr0.0 mm/hr 0.00 in0.0 mm
07:17 PM 50.8°F10.4°C 43.0°F6.1°C 75% Calm Calm -- 30.24 in1024.0 mb 0.00 in0.0 mm 0.00 in/hr0.0 mm/hr 0.00 in0.0 mm
07:22 PM 50.7°F10.4°C 42.9°F6.1°C 75% Calm Calm -- 30.24 in1024.0 mb 0.00 in0.0 mm 0.00 in/hr0.0 mm/hr 0.00 in0.0 mm
07:27 PM 50.7°F10.4°C 43.3°F6.3°C 76% Calm Calm -- 30.24 in1024.0 mb 0.00 in0.0 mm 0.00 in/hr0.0 mm/hr 0.00 in0.0 mm
07:32 PM 50.6°F10.3°C 43.2°F6.2°C 76% Calm Calm -- 30.24 in1024.0 mb 0.00 in0.0 mm 0.00 in/hr0.0 mm/hr 0.00 in0.0 mm
07:37 PM 50.5°F10.3°C 43.1°F6.2°C 76% Calm Calm -- 30.24 in1024.0 mb 0.00 in0.0 mm 0.00 in/hr0.0 mm/hr 0.00 in0.0 mm
07:42 PM 50.5°F10.3°C 43.1°F6.2°C 76% Calm Calm -- 30.24 in1024.0 mb 0.00 in0.0 mm 0.00 in/hr0.0 mm/hr 0.00 in0.0 mm
07:47 PM 50.5°F10.3°C 43.1°F6.2°C 76% Calm Calm -- 30.24 in1024.0 mb 0.00 in0.0 mm 0.00 in/hr0.0 mm/hr 0.00 in0.0 mm
07:52 PM 50.5°F10.3°C 43.5°F6.4°C 77% Calm Calm -- 30.24 in1024.0 mb 0.00 in0.0 mm 0.00 in/hr0.0 mm/hr 0.00 in0.0 mm
07:57 PM 50.5°F10.3°C 43.1°F6.2°C 76% Calm Calm -- 30.24 in1024.0 mb 0.00 in0.0 mm 0.00 in/hr0.0 mm/hr 0.00 in0.0 mm
08:02 PM 50.6°F10.3°C 43.2°F6.2°C 76% Calm Calm -- 30.24 in1024.0 mb 0.00 in0.0 mm 0.00 in/hr0.0 mm/hr 0.00 in0.0 mm
08:07 PM 50.8°F10.4°C 43.4°F6.3°C 76% Calm Calm 7.0 mph11.3 kmh 30.24 in1024.0 mb 0.00 in0.0 mm 0.00 in/hr0.0 mm/hr 0.00 in0.0 mm
08:12 PM 51.0°F10.6°C 43.6°F6.4°C 76% 5.0 mph 8.0 kmh 9.0 mph14.5 kmh 30.24 in1024.0 mb 0.00 in0.0 mm 0.00 in/hr0.0 mm/hr 0.00 in0.0 mm
08:17 PM 51.3°F10.7°C 44.2°F6.8°C 77% Calm Calm 10.0 mph16.1 kmh 30.24 in1024.0 mb 0.00 in0.0 mm 0.00 in/hr0.0 mm/hr 0.00 in0.0 mm
08:22 PM 51.5°F10.8°C 44.4°F6.9°C 77% Calm Calm 10.0 mph16.1 kmh 30.24 in1024.0 mb 0.00 in0.0 mm 0.00 in/hr0.0 mm/hr 0.00 in0.0 mm
08:27 PM 51.5°F10.8°C 44.4°F6.9°C 77% Calm Calm 7.0 mph11.3 kmh 30.24 in1024.0 mb 0.00 in0.0 mm 0.00 in/hr0.0 mm/hr 0.00 in0.0 mm
08:32 PM 51.6°F10.9°C 44.5°F6.9°C 77% Calm Calm -- 30.24 in1024.0 mb 0.00 in0.0 mm 0.00 in/hr0.0 mm/hr 0.00 in0.0 mm
08:37 PM 51.5°F10.8°C 44.4°F6.9°C 77% 3.0 mph NNW4.8 kmh NNW 8.0 mph12.9 kmh 30.24 in1024.0 mb 0.00 in0.0 mm 0.00 in/hr0.0 mm/hr 0.00 in0.0 mm
08:42 PM 51.5°F10.8°C 44.4°F6.9°C 77% 3.0 mph NNE4.8 kmh NNE 7.0 mph11.3 kmh 30.24 in1024.0 mb 0.00 in0.0 mm 0.00 in/hr0.0 mm/hr 0.00 in0.0 mm
08:47 PM 51.5°F10.8°C 44.1°F6.7°C 76% Calm Calm 8.0 mph12.9 kmh 30.24 in1024.0 mb 0.00 in0.0 mm 0.00 in/hr0.0 mm/hr 0.00 in0.0 mm
08:52 PM 51.4°F10.8°C 44.0°F6.7°C 76% 5.0 mph 8.0 kmh 11.0 mph17.7 kmh 30.24 in1024.0 mb 0.00 in0.0 mm 0.00 in/hr0.0 mm/hr 0.00 in0.0 mm
08:57 PM 51.3°F10.7°C 43.9°F6.6°C 76% 9.0 mph NNW14.5 kmh NNW 13.0 mph20.9 kmh 30.24 in1024.0 mb 0.00 in0.0 mm 0.00 in/hr0.0 mm/hr 0.00 in0.0 mm
09:02 PM 51.2°F10.7°C 43.8°F6.6°C 76% 3.0 mph N4.8 kmh N 13.0 mph20.9 kmh 30.24 in1024.0 mb 0.00 in0.0 mm 0.00 in/hr0.0 mm/hr 0.00 in0.0 mm
09:07 PM 51.0°F10.6°C 43.6°F6.4°C 76% 9.0 mph NNE14.5 kmh NNE 13.0 mph20.9 kmh 30.24 in1024.0 mb 0.00 in0.0 mm 0.00 in/hr0.0 mm/hr 0.00 in0.0 mm
09:12 PM 50.9°F10.5°C 43.8°F6.6°C 77% 1.0 mph N1.6 kmh N 13.0 mph20.9 kmh 30.24 in1024.0 mb 0.00 in0.0 mm 0.00 in/hr0.0 mm/hr 0.00 in0.0 mm
09:17 PM 50.8°F10.4°C 44.1°F6.7°C 78% Calm Calm 8.0 mph12.9 kmh 30.24 in1024.0 mb 0.00 in0.0 mm 0.00 in/hr0.0 mm/hr 0.00 in0.0 mm
09:22 PM 50.7°F10.4°C 44.0°F6.7°C 78% Calm Calm 9.0 mph14.5 kmh 30.24 in1024.0 mb 0.00 in0.0 mm 0.00 in/hr0.0 mm/hr 0.00 in0.0 mm
09:27 PM 50.5°F10.3°C 44.1°F6.7°C 79% 2.0 mph N3.2 kmh N 9.0 mph14.5 kmh 30.24 in1024.0 mb 0.00 in0.0 mm 0.00 in/hr0.0 mm/hr 0.00 in0.0 mm
09:32 PM 50.4°F10.2°C 44.4°F6.9°C 80% 4.0 mph N6.4 kmh N 10.0 mph16.1 kmh 30.24 in1024.0 mb 0.00 in0.0 mm 0.00 in/hr0.0 mm/hr 0.00 in0.0 mm
09:37 PM 50.2°F10.1°C 44.2°F6.8°C 80% 2.0 mph NNE3.2 kmh NNE 10.0 mph16.1 kmh 30.24 in1024.0 mb 0.00 in0.0 mm 0.00 in/hr0.0 mm/hr 0.00 in0.0 mm
09:42 PM 50.1°F10.1°C 44.1°F6.7°C 80% Calm Calm 8.0 mph12.9 kmh 30.24 in1024.0 mb 0.00 in0.0 mm 0.00 in/hr0.0 mm/hr 0.00 in0.0 mm
09:47 PM 49.9°F9.9°C 44.2°F6.8°C 81% 6.0 mph NNE9.7 kmh NNE 7.0 mph11.3 kmh 30.24 in1024.0 mb 0.00 in0.0 mm 0.00 in/hr0.0 mm/hr 0.00 in0.0 mm
09:52 PM 49.8°F9.9°C 44.1°F6.7°C 81% 2.0 mph N3.2 kmh N 7.0 mph11.3 kmh 30.24 in1024.0 mb 0.00 in0.0 mm 0.00 in/hr0.0 mm/hr 0.00 in0.0 mm
09:57 PM 49.6°F9.8°C 43.9°F6.6°C 81% 3.0 mph N4.8 kmh N 7.0 mph11.3 kmh 30.24 in1024.0 mb 0.00 in0.0 mm 0.00 in/hr0.0 mm/hr 0.00 in0.0 mm
10:02 PM 49.4°F9.7°C 43.7°F6.5°C 81% 2.0 mph NE3.2 kmh NE 7.0 mph11.3 kmh 30.24 in1024.0 mb 0.00 in0.0 mm 0.00 in/hr0.0 mm/hr 0.00 in0.0 mm
10:07 PM 49.3°F9.6°C 43.6°F6.4°C 81% 1.0 mph NE1.6 kmh NE 7.0 mph11.3 kmh 30.24 in1024.0 mb 0.00 in0.0 mm 0.00 in/hr0.0 mm/hr 0.00 in0.0 mm
10:12 PM 49.2°F9.6°C 43.9°F6.6°C 82% Calm Calm -- 30.24 in1024.0 mb 0.00 in0.0 mm 0.00 in/hr0.0 mm/hr 0.00 in0.0 mm
10:17 PM 49.1°F9.5°C 43.8°F6.6°C 82% Calm Calm -- 30.24 in1024.0 mb 0.00 in0.0 mm 0.00 in/hr0.0 mm/hr 0.00 in0.0 mm
10:22 PM 49.1°F9.5°C 43.8°F6.6°C 82% 1.0 mph N1.6 kmh N 7.0 mph11.3 kmh 30.24 in1024.0 mb 0.00 in0.0 mm 0.00 in/hr0.0 mm/hr 0.00 in0.0 mm
10:27 PM 49.0°F9.4°C 43.7°F6.5°C 82% Calm Calm 7.0 mph11.3 kmh 30.24 in1024.0 mb 0.00 in0.0 mm 0.00 in/hr0.0 mm/hr 0.00 in0.0 mm
10:32 PM 49.0°F9.4°C 43.7°F6.5°C 82% 1.0 mph N1.6 kmh N 7.0 mph11.3 kmh 30.24 in1024.0 mb 0.00 in0.0 mm 0.00 in/hr0.0 mm/hr 0.00 in0.0 mm
10:37 PM 49.0°F9.4°C 44.0°F6.7°C 83% 1.0 mph N1.6 kmh N 8.0 mph12.9 kmh 30.24 in1024.0 mb 0.00 in0.0 mm 0.00 in/hr0.0 mm/hr 0.00 in0.0 mm
10:42 PM 49.1°F9.5°C 44.1°F6.7°C 83% 5.0 mph N8.0 kmh N 8.0 mph12.9 kmh 30.24 in1024.0 mb 0.00 in0.0 mm 0.00 in/hr0.0 mm/hr 0.00 in0.0 mm
10:47 PM 49.2°F9.6°C 43.9°F6.6°C 82% Calm Calm 8.0 mph12.9 kmh 30.24 in1024.0 mb 0.00 in0.0 mm 0.00 in/hr0.0 mm/hr 0.00 in0.0 mm
10:52 PM 49.3°F9.6°C 44.0°F6.7°C 82% 2.0 mph 3.2 kmh 6.0 mph9.7 kmh 30.24 in1024.0 mb 0.00 in0.0 mm 0.00 in/hr0.0 mm/hr 0.00 in0.0 mm
10:57 PM 49.3°F9.6°C 44.0°F6.7°C 82% 3.0 mph N4.8 kmh N 7.0 mph11.3 kmh 30.24 in1024.0 mb 0.00 in0.0 mm 0.00 in/hr0.0 mm/hr 0.00 in0.0 mm
11:02 PM 49.4°F9.7°C 44.1°F6.7°C 82% 8.0 mph 12.9 kmh 8.0 mph12.9 kmh 30.24 in1024.0 mb 0.00 in0.0 mm 0.00 in/hr0.0 mm/hr 0.00 in0.0 mm
11:07 PM 49.5°F9.7°C 44.2°F6.8°C 82% 3.0 mph N4.8 kmh N 10.0 mph16.1 kmh 30.24 in1024.0 mb 0.00 in0.0 mm 0.00 in/hr0.0 mm/hr 0.00 in0.0 mm
11:12 PM 49.6°F9.8°C 44.3°F6.8°C 82% 4.0 mph N6.4 kmh N 10.0 mph16.1 kmh 30.24 in1024.0 mb 0.00 in0.0 mm 0.00 in/hr0.0 mm/hr 0.00 in0.0 mm
11:17 PM 49.6°F9.8°C 44.3°F6.8°C 82% 2.0 mph E3.2 kmh E 10.0 mph16.1 kmh 30.23 in1023.7 mb 0.00 in0.0 mm 0.00 in/hr0.0 mm/hr 0.00 in0.0 mm
11:22 PM 49.7°F9.8°C 44.4°F6.9°C 82% 2.0 mph N3.2 kmh N 6.0 mph9.7 kmh 30.23 in1023.7 mb 0.00 in0.0 mm 0.00 in/hr0.0 mm/hr 0.00 in0.0 mm
11:27 PM 49.7°F9.8°C 44.4°F6.9°C 82% 4.0 mph NNE6.4 kmh NNE 6.0 mph9.7 kmh 30.23 in1023.7 mb 0.00 in0.0 mm 0.00 in/hr0.0 mm/hr 0.00 in0.0 mm
11:32 PM 49.6°F9.8°C 44.3°F6.8°C 82% 8.0 mph NE12.9 kmh NE 8.0 mph12.9 kmh 30.23 in1023.7 mb 0.00 in0.0 mm 0.00 in/hr0.0 mm/hr 0.00 in0.0 mm
11:37 PM 49.6°F9.8°C 44.3°F6.8°C 82% 1.0 mph N1.6 kmh N 1.0 mph1.6 kmh 30.23 in1023.7 mb 0.00 in0.0 mm 0.00 in/hr0.0 mm/hr 0.00 in0.0 mm
11:42 PM 49.6°F9.8°C 44.3°F6.8°C 82% 3.0 mph NE4.8 kmh NE 12.0 mph19.3 kmh 30.23 in1023.7 mb 0.00 in0.0 mm 0.00 in/hr0.0 mm/hr 0.00 in0.0 mm
11:47 PM 49.5°F9.7°C 44.2°F6.8°C 82% 2.0 mph NNE3.2 kmh NNE 12.0 mph19.3 kmh 30.23 in1023.7 mb 0.00 in0.0 mm 0.00 in/hr0.0 mm/hr 0.00 in0.0 mm
11:52 PM 49.5°F9.7°C 44.2°F6.8°C 82% 3.0 mph NNW4.8 kmh NNW 12.0 mph19.3 kmh 30.23 in1023.7 mb 0.00 in0.0 mm 0.00 in/hr0.0 mm/hr 0.00 in0.0 mm
11:57 PM 49.5°F9.7°C 44.2°F6.8°C 82% 2.0 mph N3.2 kmh N 12.0 mph19.3 kmh 30.23 in1023.7 mb 0.00 in0.0 mm 0.00 in/hr0.0 mm/hr 0.00 in0.0 mm